Time;durP1;ratioP1;P1;durP2;ratioP2;P2;SDS_P1;SDS_P2;PMS_P1;PMS_P2;Temp;Humidity;BMP_temperature;BMP_pressure;BME280_temperature;BME280_humidity;BME280_pressure;Samples;Min_cycle;Max_cycle;Signal;HPM_P1;HPM_P2
2022/01/14 00:01:46;;;;;;;26.50;10.07;;;-5.20;99.90;;;;;;4931317;29;20108;-76
2022/01/14 00:04:12;;;;;;;23.25;8.63;;;-5.30;99.90;;;;;;4932034;29;20028;-78
2022/01/14 00:06:37;;;;;;;23.10;9.35;;;-3.90;99.90;;;;;;4940109;29;20392;-76
2022/01/14 00:09:09;;;;;;;24.25;9.32;;;-5.50;99.90;;;;;;4967887;28;20031;-76
2022/01/14 00:11:59;;;;;;;28.40;8.57;;;-5.50;99.90;;;;;;4952350;28;20118;-81
2022/01/14 00:14:42;;;;;;;23.95;10.75;;;-5.50;99.90;;;;;;4950927;28;20103;-77
2022/01/14 00:17:13;;;;;;;22.70;8.85;;;-5.60;99.90;;;;;;4950355;28;20023;-75
2022/01/14 00:19:40;;;;;;;33.05;10.43;;;-5.60;99.90;;;;;;4950490;28;20122;-74
2022/01/14 00:22:11;;;;;;;25.67;11.32;;;-5.70;99.90;;;;;;4950941;28;20038;-78
2022/01/14 00:35:21;;;;;;;35.20;13.27;;;-3.80;99.90;;;;;;4951118;28;20425;-78
2022/01/14 00:37:47;;;;;;;30.35;11.48;;;-4.80;99.90;;;;;;4950839;28;20416;-80
2022/01/14 00:40:13;;;;;;;33.60;11.93;;;-4.90;99.90;;;;;;4951463;29;20081;-81
2022/01/14 00:42:39;;;;;;;25.45;10.73;;;-5.10;99.90;;;;;;4951714;29;20034;-77
2022/01/14 00:45:07;;;;;;;27.88;10.65;;;-5.20;99.90;;;;;;4952780;29;20524;-79
2022/01/14 00:47:37;;;;;;;23.00;9.98;;;-5.10;99.90;;;;;;4950910;29;20035;-79
2022/01/14 00:50:08;;;;;;;20.92;9.27;;;-5.30;99.90;;;;;;4951114;28;20460;-76
2022/01/14 00:52:34;;;;;;;26.35;9.95;;;-5.40;99.90;;;;;;4949980;29;20146;-77
2022/01/14 00:55:00;;;;;;;24.50;10.63;;;-5.40;99.90;;;;;;4950766;29;20031;-75
2022/01/14 00:59:14;;;;;;;28.10;9.77;;;-5.30;99.90;;;;;;4950176;29;20051;-76
2022/01/14 01:00:12;;;;;;;29.98;9.90;;;-5.10;99.90;;;;;;4949649;29;20030;-76
2022/01/14 01:02:38;;;;;;;31.88;9.80;;;-4.90;99.90;;;;;;4933800;29;20038;-78
2022/01/14 01:05:04;;;;;;;28.98;10.15;;;-4.90;99.90;;;;;;4951064;29;20037;-77
2022/01/14 01:07:30;;;;;;;25.30;9.35;;;-5.10;99.90;;;;;;4949251;29;20039;-78
2022/01/14 01:09:55;;;;;;;18.90;8.77;;;-5.30;99.90;;;;;;4948000;29;20447;-77
2022/01/14 01:12:41;;;;;;;27.42;8.63;;;-5.40;99.90;;;;;;4948029;29;20027;-77
2022/01/14 01:15:12;;;;;;;21.63;8.85;;;-4.20;99.90;;;;;;4949865;29;20518;-77
2022/01/14 01:17:38;;;;;;;22.83;9.32;;;-5.50;99.90;;;;;;4947827;29;20035;-78
2022/01/14 01:20:13;;;;;;;27.92;11.70;;;-5.50;99.90;;;;;;4948551;29;20055;-77
2022/01/14 01:22:40;;;;;;;32.53;10.95;;;-5.50;99.90;;;;;;4949233;29;20398;-78
2022/01/14 01:25:08;;;;;;;22.20;9.75;;;-5.50;99.90;;;;;;4950048;29;20800;-77
2022/01/14 01:27:38;;;;;;;24.58;9.15;;;-5.50;99.90;;;;;;4948960;29;20116;-77
2022/01/14 01:30:49;;;;;;;23.30;8.23;;;-3.20;99.90;;;;;;4949725;29;20038;-77
2022/01/14 01:33:13;;;;;;;;;;;-5.60;99.90;;;;;;4949995;29;20058;-80
2022/01/14 01:35:38;;;;;;;26.75;7.80;;;-4.40;99.90;;;;;;4948951;29;20365;-78
2022/01/14 01:38:04;;;;;;;25.02;9.60;;;-4.20;99.90;;;;;;4948954;29;20043;-79
2022/01/14 01:40:30;;;;;;;26.42;9.80;;;-3.90;99.90;;;;;;4948981;29;20586;-78
2022/01/14 01:42:59;;;;;;;25.73;8.77;;;-6.00;99.90;;;;;;4931600;29;20043;-78
2022/01/14 01:45:26;;;;;;;39.40;11.50;;;-5.00;99.90;;;;;;4931551;29;20035;-78
2022/01/14 01:47:54;;;;;;;23.02;8.98;;;-4.70;99.90;;;;;;4931583;29;20066;-77
2022/01/14 01:50:26;;;;;;;18.55;9.10;;;-3.60;99.90;;;;;;4948644;29;20031;-77
2022/01/14 01:52:52;;;;;;;33.50;11.73;;;-4.90;99.90;;;;;;4949190;28;20031;-78
2022/01/14 01:55:20;;;;;;;28.25;11.07;;;-4.90;99.90;;;;;;4947505;29;20034;-77
2022/01/14 01:57:47;;;;;;;21.15;9.45;;;-5.00;99.90;;;;;;4948790;28;20082;-76
2022/01/14 02:00:18;;;;;;;26.55;9.85;;;-4.90;99.90;;;;;;4948710;28;20038;-78
2022/01/14 02:02:46;;;;;;;22.60;10.63;;;-4.90;99.90;;;;;;4948514;28;20035;-78
2022/01/14 02:05:12;;;;;;;27.20;10.07;;;-5.00;99.90;;;;;;4947382;29;20031;-79
2022/01/14 02:07:39;;;;;;;22.42;9.77;;;-5.10;99.90;;;;;;4948989;29;20038;-80
2022/01/14 02:10:06;;;;;;;20.48;9.43;;;-5.20;99.90;;;;;;4948848;28;20023;-79
2022/01/14 02:12:47;;;;;;;28.35;10.10;;;-5.30;99.90;;;;;;4948801;28;20027;-78
2022/01/14 02:15:26;;;;;;;22.05;8.45;;;-5.40;99.90;;;;;;4947843;28;20023;-78
2022/01/14 02:18:25;;;;;;;20.38;7.30;;;-5.60;99.90;;;;;;4948181;28;20024;-79
2022/01/14 02:23:29;;;;;;;21.00;8.55;;;-5.70;99.90;;;;;;4949219;29;20596;-77
2022/01/14 02:25:55;;;;;;;20.48;9.02;;;-5.60;99.90;;;;;;4947119;29;20047;-81
2022/01/14 02:28:20;;;;;;;21.35;9.13;;;-5.70;99.90;;;;;;4948319;28;20042;-76
2022/01/14 02:30:48;;;;;;;21.00;9.13;;;-5.70;99.90;;;;;;4947929;28;20058;-78
2022/01/14 02:33:16;;;;;;;21.00;8.32;;;-5.40;99.90;;;;;;4948371;28;20031;-77
2022/01/14 02:35:45;;;;;;;28.52;10.32;;;-5.10;99.90;;;;;;4948287;28;20031;-86
2022/01/14 02:38:12;;;;;;;28.00;10.27;;;-4.90;99.90;;;;;;4948859;28;20082;-79
2022/01/14 02:40:39;;;;;;;29.60;9.77;;;-4.80;99.90;;;;;;4946904;29;20033;-78
2022/01/14 02:43:11;;;;;;;22.85;9.68;;;-4.90;99.90;;;;;;4947622;28;20027;-82
2022/01/14 02:45:37;;;;;;;28.20;9.95;;;-5.10;99.90;;;;;;4947852;28;20042;-77
2022/01/14 02:48:03;;;;;;;28.77;9.43;;;-3.70;99.90;;;;;;4946634;29;20062;-78
2022/01/14 02:50:37;;;;;;;22.42;10.15;;;-5.20;99.90;;;;;;4948830;29;20115;-84
2022/01/14 02:53:13;;;;;;;28.85;9.95;;;-5.00;99.90;;;;;;4930457;29;20031;-79
2022/01/14 02:55:43;;;;;;;27.85;9.25;;;-4.90;99.90;;;;;;4948570;29;20023;-78
2022/01/14 02:58:10;;;;;;;25.20;10.30;;;-2.70;99.90;;;;;;4948445;29;20066;-83
2022/01/14 03:00:37;;;;;;;22.40;9.23;;;-2.40;99.90;;;;;;4930230;29;20406;-78
2022/01/14 03:03:05;;;;;;;25.23;9.57;;;-4.90;99.90;;;;;;4932651;29;20097;-80
2022/01/14 03:05:31;;;;;;;26.27;8.98;;;-5.00;99.90;;;;;;4949339;29;20027;-78
2022/01/14 03:07:57;;;;;;;29.52;10.50;;;-5.00;99.90;;;;;;4931065;29;20053;-78
2022/01/14 03:10:23;;;;;;;27.20;11.38;;;-2.60;99.90;;;;;;4948213;29;20019;-80
2022/01/14 03:12:49;;;;;;;26.50;9.68;;;-4.80;99.90;;;;;;4931003;29;20023;-78
2022/01/14 03:15:16;;;;;;;29.83;10.68;;;-4.90;99.90;;;;;;4948311;29;20394;-81
2022/01/14 03:17:42;;;;;;;44.08;10.48;;;-5.00;99.90;;;;;;4931561;29;20020;-79
2022/01/14 03:20:12;;;;;;;30.23;9.85;;;-5.10;99.90;;;;;;4949443;29;20090;-78
2022/01/14 03:22:41;;;;;;;;;;;-5.20;99.90;;;;;;4933190;29;20054;-79
2022/01/14 03:27:53;;;;;;;24.58;9.45;;;-5.40;99.90;;;;;;4952255;29;20046;-79
2022/01/14 03:30:19;;;;;;;28.20;9.48;;;-5.40;99.90;;;;;;4953686;29;20027;-79
2022/01/14 03:32:45;;;;;;;21.95;8.80;;;-5.50;99.90;;;;;;4935270;29;20035;-78
2022/01/14 03:35:12;;;;;;;28.38;10.05;;;-5.30;99.90;;;;;;4952377;29;20485;-79
2022/01/14 03:37:38;;;;;;;26.38;9.23;;;-5.10;99.90;;;;;;4952296;29;20050;-79
2022/01/14 03:40:07;;;;;;;25.48;10.13;;;-5.10;99.90;;;;;;4952278;29;20044;-77
2022/01/14 03:42:33;;;;;;;35.67;11.43;;;-5.20;99.90;;;;;;4934060;29;20027;-79
2022/01/14 03:44:59;;;;;;;24.55;7.45;;;-5.20;99.90;;;;;;4933617;29;20027;-79
2022/01/14 03:47:25;;;;;;;31.88;10.73;;;-5.10;99.90;;;;;;4950872;29;20359;-78
2022/01/14 03:49:50;;;;;;;26.98;9.18;;;-5.20;99.90;;;;;;4950878;29;20027;-77
2022/01/14 03:52:17;;;;;;;29.05;10.23;;;-5.30;99.90;;;;;;4952883;28;20031;-80
2022/01/14 03:54:44;;;;;;;34.00;11.32;;;-5.30;99.90;;;;;;4953145;28;20016;-78
2022/01/14 03:57:09;;;;;;;23.60;9.35;;;-5.30;99.90;;;;;;4953755;28;20136;-78
2022/01/14 03:59:35;;;;;;;25.08;10.38;;;-5.20;99.90;;;;;;4954431;29;20047;-78
2022/01/14 04:02:01;;;;;;;22.35;10.18;;;-5.10;99.90;;;;;;4952970;29;20098;-80
2022/01/14 04:04:26;;;;;;;20.80;9.55;;;-5.20;99.90;;;;;;4954477;28;20102;-79
2022/01/14 04:06:55;;;;;;;26.88;9.57;;;-5.10;99.90;;;;;;4954589;29;20043;-78
2022/01/14 04:09:21;;;;;;;19.77;8.27;;;-5.20;99.90;;;;;;4954765;29;20023;-78
2022/01/14 04:11:46;;;;;;;21.40;8.15;;;-2.90;99.90;;;;;;4953407;29;20476;-78
2022/01/14 04:15:36;;;;;;;20.70;10.00;;;-2.90;99.90;;;;;;4953870;29;20054;-79
2022/01/14 04:17:04;;;;;;;20.67;7.72;;;-5.30;99.90;;;;;;4953519;28;20175;-79
2022/01/14 04:19:29;;;;;;;25.10;8.73;;;-5.30;99.90;;;;;;4952976;29;20198;-79
2022/01/14 04:21:56;;;;;;;27.20;9.73;;;-5.50;99.90;;;;;;4953514;29;20479;-79
2022/01/14 04:24:22;;;;;;;22.42;9.02;;;-5.40;99.90;;;;;;4952420;29;20027;-78
2022/01/14 04:26:47;;;;;;;25.80;8.73;;;-5.50;99.90;;;;;;4952137;29;20039;-78
2022/01/14 04:29:14;;;;;;;24.23;8.50;;;-5.40;99.90;;;;;;4952192;29;20142;-79
2022/01/14 04:31:40;;;;;;;26.33;9.00;;;-5.30;99.90;;;;;;4952285;29;20027;-78
2022/01/14 04:34:06;;;;;;;21.00;9.02;;;-4.90;99.90;;;;;;4952180;29;20540;-79
2022/01/14 04:36:32;;;;;;;27.35;9.38;;;-4.80;99.90;;;;;;4953306;29;20119;-78
2022/01/14 04:38:58;;;;;;;23.65;8.05;;;-4.80;99.90;;;;;;4952683;28;20492;-78
2022/01/14 04:41:24;;;;;;;21.17;8.85;;;-4.10;99.90;;;;;;4953411;29;20035;-78
2022/01/14 04:43:49;;;;;;;26.52;11.18;;;-3.10;99.90;;;;;;4953667;29;20028;-77
2022/01/14 04:46:36;;;;;;;21.92;8.65;;;-3.80;99.90;;;;;;4953105;29;20039;-79
2022/01/14 04:49:01;;;;;;;20.25;7.80;;;-5.30;99.90;;;;;;4953789;28;20480;-80
2022/01/14 04:51:27;;;;;;;23.25;8.65;;;-5.30;99.90;;;;;;4951836;29;20043;-80
2022/01/14 04:53:52;;;;;;;20.42;7.80;;;-5.30;99.90;;;;;;4953419;29;20440;-79
2022/01/14 04:56:18;;;;;;;23.67;7.85;;;-4.70;99.90;;;;;;4953282;29;20262;-78
2022/01/14 04:58:44;;;;;;;21.20;7.75;;;-5.00;99.90;;;;;;4951890;29;20023;-79
2022/01/14 05:01:10;;;;;;;23.90;8.27;;;-4.90;99.90;;;;;;4951510;29;20023;-79
2022/01/14 05:03:35;;;;;;;22.30;9.15;;;-4.90;99.90;;;;;;4953567;28;20023;-78
2022/01/14 05:06:02;;;;;;;29.77;10.02;;;-5.00;99.90;;;;;;4952893;29;20483;-79
2022/01/14 05:08:36;;;;;;;18.50;7.55;;;-5.10;99.90;;;;;;4953344;28;20035;-78
2022/01/14 05:13:43;;;;;;;19.52;7.07;;;-5.40;99.90;;;;;;4952966;28;20126;-79
2022/01/14 05:16:09;;;;;;;22.10;7.65;;;-5.50;99.90;;;;;;4951067;29;20082;-78
2022/01/14 05:18:38;;;;;;;17.00;7.18;;;-5.40;99.90;;;;;;4951143;29;20031;-81
2022/01/14 05:21:04;;;;;;;20.80;6.57;;;-5.40;99.90;;;;;;4951413;29;20437;-79
2022/01/14 05:23:30;;;;;;;29.25;10.15;;;-5.50;99.90;;;;;;4952701;28;20023;-78
2022/01/14 05:25:56;;;;;;;35.78;10.73;;;-5.20;99.90;;;;;;4952772;28;20399;-83
2022/01/14 05:28:22;;;;;;;21.35;8.07;;;-2.60;99.90;;;;;;4951512;29;20031;-78
2022/01/14 05:30:48;;;;;;;23.35;9.73;;;-4.70;99.90;;;;;;4952321;28;20029;-79
2022/01/14 05:33:15;;;;;;;37.47;11.07;;;-4.80;99.90;;;;;;4952507;28;20042;-78
2022/01/14 05:35:42;;;;;;;20.38;9.57;;;-4.90;99.90;;;;;;4951071;29;20023;-80
2022/01/14 05:38:08;;;;;;;18.42;6.93;;;-5.00;99.90;;;;;;4952241;29;20062;-79
2022/01/14 05:40:33;;;;;;;28.95;8.40;;;-5.10;99.90;;;;;;4952246;28;20381;-82
2022/01/14 05:43:00;;;;;;;19.17;8.02;;;-5.30;99.90;;;;;;4951207;29;20502;-83
2022/01/14 05:45:26;;;;;;;18.45;8.40;;;-5.50;99.90;;;;;;4951967;28;20110;-78
2022/01/14 05:47:52;;;;;;;25.50;7.88;;;-4.60;99.90;;;;;;4952608;29;20067;-78
2022/01/14 05:50:22;;;;;;;25.88;8.95;;;-5.60;99.90;;;;;;4951779;28;20077;-79
2022/01/14 05:52:48;;;;;;;29.25;10.15;;;-5.60;99.90;;;;;;4951128;29;20476;-79
2022/01/14 05:55:16;;;;;;;30.05;9.38;;;-5.30;99.90;;;;;;4951012;29;20062;-79
2022/01/14 05:57:42;;;;;;;29.27;9.02;;;-2.70;99.90;;;;;;4951491;29;20170;-79
2022/01/14 06:00:14;;;;;;;21.98;8.52;;;-5.10;99.90;;;;;;4952531;28;20034;-77
2022/01/14 06:02:39;;;;;;;27.08;8.60;;;-5.00;99.90;;;;;;4951248;29;20066;-80
2022/01/14 06:05:05;;;;;;;29.27;9.52;;;-5.00;99.90;;;;;;4950845;29;20142;-78
2022/01/14 06:07:31;;;;;;;28.63;9.52;;;-5.10;99.90;;;;;;4951668;28;20066;-78
2022/01/14 06:09:57;;;;;;;31.45;9.13;;;-5.10;99.90;;;;;;4950737;29;20465;-78
2022/01/14 06:12:23;;;;;;;29.98;10.23;;;-5.20;99.90;;;;;;4951661;29;20058;-78
2022/01/14 06:14:48;;;;;;;61.67;23.27;;;-4.20;99.90;;;;;;4951679;29;20027;-78
2022/01/14 06:17:14;;;;;;;53.28;22.92;;;-5.30;99.90;;;;;;4951396;29;20038;-78
2022/01/14 06:19:40;;;;;;;73.60;25.63;;;-5.10;99.90;;;;;;4950371;29;20198;-78
2022/01/14 06:22:05;;;;;;;52.63;18.27;;;-5.00;99.90;;;;;;4951410;29;20034;-77
2022/01/14 06:24:31;;;;;;;41.97;13.43;;;-5.10;99.90;;;;;;4959764;29;20023;-78
2022/01/14 06:26:57;;;;;;;38.85;13.55;;;-5.20;99.90;;;;;;4970400;28;20035;-78
2022/01/14 06:29:23;;;;;;;52.88;18.77;;;-5.30;99.90;;;;;;4962736;28;20023;-77
2022/01/14 06:31:49;;;;;;;38.58;12.90;;;-5.10;99.90;;;;;;4960100;28;20106;-79
2022/01/14 06:34:14;;;;;;;38.13;10.93;;;-5.00;99.90;;;;;;4960595;28;20079;-77
2022/01/14 06:36:42;;;;;;;36.45;10.68;;;-5.10;99.90;;;;;;4952628;28;20047;-77
2022/01/14 06:39:08;;;;;;;30.45;10.10;;;-2.70;99.90;;;;;;4951227;28;20110;-78
2022/01/14 06:41:34;;;;;;;32.88;10.25;;;-5.20;99.90;;;;;;4949960;28;20037;-77
2022/01/14 06:44:00;;;;;;;32.40;10.60;;;-5.20;99.90;;;;;;4950772;29;20031;-77
2022/01/14 06:46:25;;;;;;;30.58;11.80;;;-3.50;99.90;;;;;;4949307;29;20034;-78
2022/01/14 06:48:51;;;;;;;37.13;9.70;;;-5.40;99.90;;;;;;4950071;29;20896;-78
2022/01/14 06:51:17;;;;;;;30.15;10.63;;;-5.40;99.90;;;;;;4948524;29;20468;-78
2022/01/14 06:53:42;;;;;;;28.88;11.40;;;-5.40;99.90;;;;;;4964563;28;20464;-77
2022/01/14 06:56:11;;;;;;;32.60;10.85;;;-5.50;99.90;;;;;;4950552;28;20472;-78
2022/01/14 06:58:37;;;;;;;37.85;13.38;;;-5.50;99.90;;;;;;4950493;28;20495;-77
2022/01/14 07:01:04;;;;;;;42.50;15.15;;;-5.40;99.90;;;;;;4952049;28;20028;-78
2022/01/14 07:03:29;;;;;;;37.67;11.05;;;-4.90;99.90;;;;;;4953985;29;20622;-77
2022/01/14 07:05:55;;;;;;;41.85;10.98;;;-4.40;99.90;;;;;;4954841;29;20056;-78
2022/01/14 07:08:21;;;;;;;38.03;11.90;;;-3.10;99.90;;;;;;4955414;29;20031;-78
2022/01/14 07:10:46;;;;;;;36.50;11.25;;;-4.30;99.90;;;;;;4955044;29;20468;-79
2022/01/14 07:13:12;;;;;;;28.70;11.00;;;-4.90;99.90;;;;;;4969686;28;20399;-78
2022/01/14 07:15:38;;;;;;;31.58;10.05;;;-4.90;99.90;;;;;;4954892;29;20046;-78
2022/01/14 07:18:03;;;;;;;32.97;10.82;;;-5.10;99.90;;;;;;4954862;29;20149;-77
2022/01/14 07:20:29;;;;;;;35.13;11.35;;;-5.20;99.90;;;;;;4954497;29;20058;-78
2022/01/14 07:22:55;;;;;;;29.58;9.00;;;-5.30;99.90;;;;;;4970546;28;20408;-76
2022/01/14 07:25:21;;;;;;;22.90;9.93;;;-3.20;99.90;;;;;;4954816;29;20035;-76
2022/01/14 07:27:47;;;;;;;32.13;10.45;;;-5.40;99.90;;;;;;4954730;28;20531;-80
2022/01/14 07:30:16;;;;;;;23.50;9.93;;;-2.60;99.90;;;;;;4954925;28;20023;-76
2022/01/14 07:32:43;;;;;;;36.70;10.32;;;-5.40;99.90;;;;;;4954900;28;20041;-76
2022/01/14 07:35:09;;;;;;;35.28;11.50;;;-4.40;99.90;;;;;;4954606;28;20042;-76
2022/01/14 07:37:35;;;;;;;30.00;11.85;;;-5.40;99.90;;;;;;4955110;28;20026;-75
2022/01/14 07:40:01;;;;;;;26.45;10.05;;;-3.60;99.90;;;;;;4954431;29;20023;-76
2022/01/14 07:42:26;;;;;;;30.00;12.10;;;-2.80;99.90;;;;;;4954440;29;20206;-76
2022/01/14 07:44:52;;;;;;;40.53;12.80;;;-5.00;99.90;;;;;;4955074;28;20031;-78
2022/01/14 07:47:18;;;;;;;31.60;11.05;;;-4.90;99.90;;;;;;4954021;28;20031;-78
2022/01/14 07:49:44;;;;;;;32.58;11.90;;;-4.70;99.90;;;;;;4954181;28;20034;-77
2022/01/14 07:52:10;;;;;;;44.75;13.35;;;-4.70;99.90;;;;;;4960227;28;20038;-77
2022/01/14 07:54:35;;;;;;;31.52;11.50;;;-4.60;99.90;;;;;;4972183;28;20035;-76
2022/01/14 07:57:02;;;;;;;45.28;13.45;;;-4.50;99.90;;;;;;4964432;28;20031;-77
2022/01/14 07:59:31;;;;;;;33.45;11.55;;;-4.50;99.90;;;;;;4950692;28;20395;-77
2022/01/14 08:01:58;;;;;;;24.30;10.70;;;-4.60;99.90;;;;;;4951011;28;20380;-77
2022/01/14 08:04:26;;;;;;;32.28;11.93;;;-4.50;99.90;;;;;;4950912;28;20035;-78
2022/01/14 08:06:54;;;;;;;39.90;12.82;;;-4.50;99.90;;;;;;4950734;28;20287;-78
2022/01/14 08:09:20;;;;;;;27.27;11.27;;;-4.40;99.90;;;;;;4944369;29;20027;-79
2022/01/14 08:11:47;;;;;;;30.52;10.90;;;-4.40;99.90;;;;;;4951012;28;20038;-81
2022/01/14 08:14:13;;;;;;;64.22;21.13;;;-4.40;99.90;;;;;;4950830;29;20546;-77
2022/01/14 08:16:39;;;;;;;45.60;16.33;;;-3.00;99.90;;;;;;4951883;29;20267;-77
2022/01/14 08:19:05;;;;;;;41.88;15.00;;;-4.20;99.90;;;;;;4951130;29;20065;-77
2022/01/14 08:21:31;;;;;;;47.17;14.07;;;-4.10;99.90;;;;;;4952053;29;20387;-76
2022/01/14 08:23:57;;;;;;;34.97;10.63;;;-4.10;99.90;;;;;;4951833;29;20015;-78
2022/01/14 08:26:24;;;;;;;41.58;13.18;;;-3.60;99.90;;;;;;4951980;29;20310;-77
2022/01/14 08:28:49;;;;;;;36.08;13.80;;;-2.30;99.90;;;;;;4935819;29;20090;-76
2022/01/14 08:31:16;;;;;;;39.35;12.70;;;-2.90;99.90;;;;;;4953362;29;20027;-78
2022/01/14 08:33:43;;;;;;;41.97;13.82;;;-3.90;99.90;;;;;;4952375;29;20019;-77
2022/01/14 08:36:09;;;;;;;38.95;11.57;;;-2.70;99.90;;;;;;4952631;29;20741;-77
2022/01/14 08:38:37;;;;;;;38.95;14.52;;;-3.80;99.90;;;;;;4953256;29;20106;-77
2022/01/14 08:41:02;;;;;;;38.60;14.65;;;-3.70;99.90;;;;;;4953042;29;20034;-75
2022/01/14 08:43:28;;;;;;;38.65;12.88;;;-3.60;99.90;;;;;;4953283;29;20023;-74
2022/01/14 08:45:57;;;;;;;43.75;15.57;;;-3.50;99.90;;;;;;4939187;29;20039;-73
2022/01/14 08:48:24;;;;;;;36.13;14.77;;;-3.10;99.90;;;;;;4951058;28;20023;-75
2022/01/14 08:50:50;;;;;;;42.72;14.88;;;-3.20;99.90;;;;;;4952328;28;20271;-79
2022/01/14 08:53:15;;;;;;;43.83;14.65;;;-2.90;99.90;;;;;;4951972;29;20296;-77
2022/01/14 08:55:42;;;;;;;36.40;14.13;;;-3.00;99.90;;;;;;4951139;28;20531;-76
2022/01/14 08:58:09;;;;;;;45.65;16.65;;;-2.90;99.90;;;;;;4951224;28;20023;-77
2022/01/14 09:00:34;;;;;;;46.90;17.00;;;-2.80;99.90;;;;;;4950911;28;20030;-78
2022/01/14 09:03:02;;;;;;;44.42;16.50;;;-1.80;99.90;;;;;;4950707;28;20362;-77
2022/01/14 09:05:28;;;;;;;38.70;15.60;;;-2.40;99.90;;;;;;4950887;28;20082;-75
2022/01/14 09:07:54;;;;;;;40.60;15.38;;;-2.70;99.90;;;;;;4950939;29;20035;-79
2022/01/14 09:10:20;;;;;;;39.00;14.80;;;-2.10;99.90;;;;;;4950991;28;20480;-78
2022/01/14 09:12:47;;;;;;;37.17;15.88;;;-1.90;99.90;;;;;;4950963;28;20578;-78
2022/01/14 09:15:13;;;;;;;36.90;14.63;;;-1.40;99.90;;;;;;4950907;28;20028;-78
2022/01/14 09:17:40;;;;;;;30.52;14.13;;;-2.30;99.90;;;;;;4952057;28;20495;-76
2022/01/14 09:20:08;;;;;;;32.38;13.40;;;-1.50;99.90;;;;;;4951282;28;20062;-76
2022/01/14 09:22:35;;;;;;;38.78;15.18;;;-2.10;99.90;;;;;;4951391;28;20095;-79
2022/01/14 09:25:03;;;;;;;38.30;14.63;;;-1.90;99.90;;;;;;4951460;28;20023;-78
2022/01/14 09:27:30;;;;;;;37.65;14.35;;;-1.30;99.90;;;;;;4949470;28;20472;-78
2022/01/14 09:29:58;;;;;;;41.35;17.25;;;-1.20;99.90;;;;;;4949537;28;20078;-77
2022/01/14 09:32:25;;;;;;;32.40;13.75;;;-1.30;99.90;;;;;;4949346;28;20118;-77
2022/01/14 09:34:51;;;;;;;30.20;13.85;;;-1.50;99.90;;;;;;4949858;28;20034;-77
2022/01/14 09:37:16;;;;;;;26.92;12.05;;;-1.40;99.90;;;;;;4950697;28;20035;-78
2022/01/14 09:39:45;;;;;;;35.53;12.95;;;-1.20;99.90;;;;;;4950592;28;20023;-78
2022/01/14 09:42:15;;;;;;;26.27;11.27;;;-1.20;99.90;;;;;;4951717;29;20058;-78
2022/01/14 09:44:41;;;;;;;;;;;-1.10;99.90;;;;;;4952370;28;20490;-77
2022/01/14 09:47:07;;;;;;;27.48;10.73;;;-1.00;99.90;;;;;;4949465;28;19914;-78
2022/01/14 09:49:33;;;;;;;29.67;13.30;;;-1.00;99.90;;;;;;4932352;29;20038;-77
2022/01/14 09:51:58;;;;;;;33.80;13.25;;;-0.90;99.90;;;;;;4950205;29;20458;-77
2022/01/14 09:54:24;;;;;;;33.65;13.75;;;-0.30;99.90;;;;;;4950056;29;20033;-76
2022/01/14 09:56:50;;;;;;;30.27;13.20;;;0.00;99.90;;;;;;4949694;29;20027;-78
2022/01/14 09:59:17;;;;;;;29.30;11.63;;;-0.40;99.90;;;;;;4949419;29;20042;-78
2022/01/14 10:01:47;;;;;;;26.40;10.40;;;0.30;99.90;;;;;;4949408;29;20031;-78
2022/01/14 10:04:14;;;;;;;24.80;11.60;;;-0.70;99.90;;;;;;4933096;29;20325;-77
2022/01/14 10:06:47;;;;;;;29.63;11.07;;;0.30;99.90;;;;;;4932258;29;20499;-77
2022/01/14 10:09:29;;;;;;;32.45;11.20;;;-0.90;99.90;;;;;;4949249;29;20028;-77
2022/01/14 10:12:16;;;;;;;26.45;9.20;;;-0.70;99.90;;;;;;4948602;29;20042;-77
2022/01/14 10:14:59;;;;;;;27.40;11.10;;;-0.60;99.90;;;;;;4949246;28;20027;-78
2022/01/14 10:17:33;;;;;;;23.27;9.60;;;-0.50;99.90;;;;;;4948010;29;20143;-77
2022/01/14 10:19:59;;;;;;;21.70;9.90;;;-0.50;99.90;;;;;;4949265;28;20385;-77
2022/01/14 10:22:30;;;;;;;32.50;10.13;;;-0.60;99.90;;;;;;4950822;29;20498;-79
2022/01/14 10:25:09;;;;;;;25.63;11.68;;;-0.40;99.90;;;;;;4949890;28;20484;-79
2022/01/14 10:27:43;;;;;;;21.02;11.00;;;-0.30;99.90;;;;;;4948726;28;20031;-78
2022/01/14 10:30:11;;;;;;;26.15;11.38;;;-0.40;99.90;;;;;;4949265;28;20027;-77
2022/01/14 10:32:38;;;;;;;27.63;10.13;;;-0.40;99.90;;;;;;4948635;28;20035;-78
2022/01/14 10:35:13;;;;;;;23.95;10.35;;;-0.40;99.90;;;;;;4946807;28;20222;-78
2022/01/14 10:37:39;;;;;;;35.30;11.43;;;-0.30;99.90;;;;;;4948011;29;20027;-79
2022/01/14 10:40:13;;;;;;;18.33;9.25;;;0.00;99.90;;;;;;4948621;29;20102;-78
2022/01/14 10:42:40;;;;;;;21.50;8.75;;;0.00;99.90;;;;;;4946929;29;20152;-78
2022/01/14 10:45:22;;;;;;;29.73;11.20;;;0.10;99.90;;;;;;4947067;29;20027;-77
2022/01/14 10:47:51;;;;;;;24.13;11.23;;;0.10;99.90;;;;;;4931098;29;20135;-77
2022/01/14 10:50:17;;;;;;;20.43;8.40;;;0.10;99.90;;;;;;4949010;29;20047;-77
2022/01/14 10:52:49;;;;;;;23.02;8.35;;;0.40;99.90;;;;;;4931257;29;20058;-79
2022/01/14 10:55:37;;;;;;;21.35;9.80;;;0.30;99.90;;;;;;4931905;29;20400;-77
2022/01/14 10:58:06;;;;;;;25.70;8.75;;;0.40;99.90;;;;;;4949108;29;20023;-77
2022/01/14 11:00:41;;;;;;;24.40;10.88;;;0.30;99.90;;;;;;4931397;29;20072;-79
2022/01/14 11:03:07;;;;;;;30.55;11.60;;;1.30;99.90;;;;;;4948160;29;20034;-77
2022/01/14 11:05:34;;;;;;;29.70;12.07;;;1.30;99.90;;;;;;4948767;29;20434;-76
2022/01/14 11:08:01;;;;;;;36.03;14.65;;;0.60;99.90;;;;;;4948868;29;20175;-79
2022/01/14 11:10:33;;;;;;;40.85;13.27;;;0.90;99.90;;;;;;4948475;29;20102;-77
2022/01/14 11:13:01;;;;;;;38.38;13.52;;;0.80;99.90;;;;;;4946367;29;20023;-79
2022/01/14 11:15:30;;;;;;;36.28;13.98;;;0.90;99.90;;;;;;4952969;29;20028;-78
2022/01/14 11:17:59;;;;;;;40.03;14.30;;;0.90;99.90;;;;;;4947675;29;20024;-78
2022/01/14 11:20:34;;;;;;;36.22;15.13;;;1.00;99.90;;;;;;4947649;29;20288;-79
2022/01/14 11:23:14;;;;;;;33.95;14.73;;;1.10;99.90;;;;;;4930818;29;20410;-78
2022/01/14 11:25:52;;;;;;;37.58;12.55;;;1.20;99.90;;;;;;4948097;29;20031;-78
2022/01/14 11:28:30;;;;;;;29.73;13.88;;;1.20;99.90;;;;;;4948943;29;20488;-79
2022/01/14 11:30:56;;;;;;;37.97;14.27;;;1.20;99.90;;;;;;4930943;29;20031;-79
2022/01/14 11:33:38;;;;;;;36.55;15.43;;;1.40;99.90;;;;;;4951249;29;20027;-79
2022/01/14 11:36:07;;;;;;;31.13;11.30;;;1.40;99.90;;;;;;4948874;29;20122;-79
2022/01/14 11:38:44;;;;;;;32.78;13.48;;;1.60;99.90;;;;;;4950600;29;20020;-81
2022/01/14 11:41:39;;;;;;;35.65;13.13;;;1.70;99.90;;;;;;4946405;28;20040;-78
2022/01/14 11:44:08;;;;;;;29.52;12.10;;;1.90;99.90;;;;;;4933724;28;20349;-78
2022/01/14 11:46:37;;;;;;;34.13;13.70;;;1.90;99.90;;;;;;4937671;28;20431;-78
2022/01/14 11:49:32;;;;;;;37.20;13.68;;;2.00;99.90;;;;;;4945327;28;20034;-77
2022/01/14 11:52:00;;;;;;;22.65;11.23;;;2.00;99.90;;;;;;4944477;28;20028;-78
2022/01/14 11:54:44;;;;;;;36.42;13.82;;;2.10;99.90;;;;;;4941368;28;20049;-78
2022/01/14 11:57:12;;;;;;;35.13;13.23;;;2.10;99.90;;;;;;4937511;28;20035;-79
2022/01/14 11:59:39;;;;;;;31.48;12.82;;;2.20;99.90;;;;;;4949997;28;20468;-80
2022/01/14 12:02:24;;;;;;;26.13;11.93;;;2.10;99.90;;;;;;4951954;29;20042;-77
2022/01/14 12:05:00;;;;;;;31.13;12.77;;;2.40;99.90;;;;;;4955885;29;20228;-82
2022/01/14 12:07:26;;;;;;;33.63;13.45;;;2.60;99.90;;;;;;4938233;29;20051;-79
2022/01/14 12:10:07;;;;;;;32.10;14.52;;;2.70;99.90;;;;;;4953413;29;20027;-78
2022/01/14 12:12:34;;;;;;;31.42;13.13;;;2.60;99.90;;;;;;4933227;29;20035;-79
2022/01/14 12:15:02;;;;;;;41.00;14.60;;;2.80;99.90;;;;;;4932810;29;20019;-79
2022/01/14 12:17:42;;;;;;;33.63;12.98;;;2.90;99.90;;;;;;4950881;29;20417;-79
2022/01/14 12:20:14;;;;;;;;;;;2.90;99.90;;;;;;4950437;29;20085;-79
2022/01/14 12:22:41;;;;;;;31.15;11.25;;;3.10;99.90;;;;;;4952759;29;19916;-78
2022/01/14 12:25:08;;;;;;;32.83;13.70;;;3.10;99.90;;;;;;4933988;29;20110;-78
2022/01/14 12:27:44;;;;;;;31.05;13.40;;;3.20;99.90;;;;;;4931368;29;20046;-78
2022/01/14 12:30:28;;;;;;;37.85;15.32;;;3.30;99.90;;;;;;4950958;29;20019;-83
2022/01/14 12:32:55;;;;;;;33.47;13.88;;;3.30;99.90;;;;;;4970427;29;20039;-78
2022/01/14 12:35:27;;;;;;;31.85;12.80;;;3.40;99.90;;;;;;4968903;29;20019;-79
2022/01/14 12:37:56;;;;;;;34.30;13.80;;;3.30;99.90;;;;;;4972354;29;20030;-77
2022/01/14 12:40:30;;;;;;;33.83;12.85;;;3.40;99.90;;;;;;4952752;29;20020;-82
2022/01/14 12:43:03;;;;;;;32.75;13.02;;;3.50;99.90;;;;;;4970204;29;20034;-78
2022/01/14 12:45:51;;;;;;;44.75;14.50;;;3.60;99.90;;;;;;4968471;29;20023;-82
2022/01/14 12:48:58;;;;;;;33.37;13.50;;;4.60;99.90;;;;;;4959112;29;20099;-79
2022/01/14 12:51:20;;;;;;;30.58;11.57;;;3.80;99.90;;;;;;4970413;29;20036;-79
2022/01/14 12:53:50;;;;;;;31.58;12.95;;;3.80;99.90;;;;;;4953594;29;20055;-78
2022/01/14 12:56:19;;;;;;;29.98;11.80;;;3.90;99.90;;;;;;4953311;29;20033;-77
2022/01/14 12:59:05;;;;;;;34.38;14.63;;;3.90;99.90;;;;;;4952856;29;20027;-78
2022/01/14 13:01:49;;;;;;;26.83;12.52;;;3.90;99.90;;;;;;4970833;29;20039;-78